Terminal Aerodrome Forecast
Issued by NWS

Home | Current Version | Previous Version | Text Only | Print | Product List | Glossary On
Versions: 1 2 3 4 5 6 7 8 9 10 11 12 13 14 15 16 17 18 19 20 21 22 23 24 25 26
000
FTUS46 KMTR 190230 AAA
TAFSFO
TAF AMD
KSFO 190230Z 1903/2006 30017KT P6SM SKC
     FM190400 29008KT P6SM FEW010
     FM190800 29005KT P6SM SCT008
     FM190900 28006KT P6SM BKN010
     FM191700 31005KT P6SM SCT010
     FM192100 30012G20KT P6SM FEW010
     FM200400 29010KT P6SM FEW010=

USA.gov is the U.S. government's official web portal to all federal, state and local government web resources and services.